Time;durP1;ratioP1;P1;durP2;ratioP2;P2;SDS_P1;SDS_P2;PMS_P1;PMS_P2;Temp;Humidity;BMP_temperature;BMP_pressure;BME280_temperature;BME280_humidity;BME280_pressure;Samples;Min_cycle;Max_cycle;Signal;HPM_P1;HPM_P2
2022/10/07 00:00:21;;;;;;;12.77;3.33;;;;;;;;;;5058402;28;20443;-74
2022/10/07 00:02:47;;;;;;;11.68;3.05;;;;;;;;;;5089902;28;20444;-74
2022/10/07 00:05:13;;;;;;;11.30;3.13;;;;;;;;;;5090747;28;20418;-74
2022/10/07 00:07:39;;;;;;;11.25;2.67;;;;;;;;;;5072686;28;20540;-74
2022/10/07 00:10:05;;;;;;;12.13;3.20;;;10.10;99.90;;;;;;5075079;28;20397;-74
2022/10/07 00:12:32;;;;;;;11.27;3.20;;;;;;;;;;5108411;28;20878;-75
2022/10/07 00:14:58;;;;;;;18.00;4.03;;;;;;;;;;5071255;28;20418;-75
2022/10/07 00:17:24;;;;;;;12.52;2.83;;;;;;;;;;5075525;28;20505;-75
2022/10/07 00:19:50;;;;;;;12.30;3.28;;;;;;;;;;5072540;28;20484;-74
2022/10/07 00:22:16;;;;;;;13.60;2.90;;;;;;;;;;5072494;28;20936;-74
2022/10/07 00:24:42;;;;;;;10.50;2.80;;;;;;;;;;5072003;28;20414;-74
2022/10/07 00:27:09;;;;;;;16.35;3.55;;;;;;;;;;5091526;28;20878;-74
2022/10/07 00:29:35;;;;;;;12.52;2.90;;;;;;;;;;5073266;28;20517;-74
2022/10/07 00:32:01;;;;;;;13.05;3.20;;;;;;;;;;5072557;28;22371;-74
2022/10/07 00:34:27;;;;;;;13.20;3.55;;;;;;;;;;5085210;28;20521;-74
2022/10/07 00:36:53;;;;;;;12.93;3.65;;;;;;;;;;5054504;28;20411;-74
2022/10/07 00:39:19;;;;;;;13.57;3.30;;;;;;;;;;5060532;28;20479;-75
2022/10/07 00:41:50;;;;;;;12.02;3.28;;;10.00;99.90;;;;;;5057608;28;20900;-75
2022/10/07 00:44:40;;;;;;;12.27;3.38;;;10.00;99.90;;;;;;5072522;28;20410;-75
2022/10/07 00:47:21;;;;;;;8.70;3.20;;;;;;;;;;5071939;28;20418;-74
2022/10/07 00:49:54;;;;;;;10.50;3.38;;;;;;;;;;5089030;28;20983;-74
2022/10/07 00:52:21;;;;;;;11.63;3.42;;;;;;;;;;5074570;28;20394;-75
2022/10/07 00:54:52;;;;;;;13.65;3.17;;;9.90;99.90;;;;;;5088622;28;20414;-74
2022/10/07 00:57:20;;;;;;;14.20;3.65;;;;;;;;;;5074023;28;20402;-74
2022/10/07 00:59:46;;;;;;;13.68;3.65;;;;;;;;;;5072730;28;20460;-74
2022/10/07 01:02:12;;;;;;;12.25;3.45;;;;;;;;;;5074031;28;20406;-74
2022/10/07 01:04:38;;;;;;;14.18;3.60;;;;;;;;;;5068858;28;20418;-74
2022/10/07 01:07:04;;;;;;;10.43;3.20;;;;;;;;;;5056247;28;20425;-75
2022/10/07 01:09:30;;;;;;;12.70;3.70;;;;;;;;;;5073134;28;21693;-74
2022/10/07 01:12:00;;;;;;;10.40;3.65;;;;;;;;;;5073099;28;20414;-75
2022/10/07 01:14:37;;;;;;;14.20;3.63;;;;;;;;;;5087388;28;20766;-74
2022/10/07 01:17:22;;;;;;;14.23;3.65;;;;;;;;;;5058898;28;20528;-74
2022/10/07 01:20:04;;;;;;;12.85;3.67;;;;;;;;;;5073883;28;21020;-74
2022/10/07 01:22:30;;;;;;;10.57;3.53;;;;;;;;;;5073434;28;20425;-74
2022/10/07 01:25:19;;;;;;;11.23;3.58;;;;;;;;;;5072381;28;20410;-74
2022/10/07 01:27:48;;;;;;;9.82;3.63;;;;;;;;;;5055231;28;20414;-74
2022/10/07 01:30:14;;;;;;;15.52;4.20;;;;;;;;;;5073518;28;20489;-75
2022/10/07 01:32:43;;;;;;;13.80;4.00;;;;;;;;;;5070294;28;20418;-75
2022/10/07 01:35:15;;;;;;;13.38;3.97;;;;;;;;;;5071197;28;20777;-75
2022/10/07 01:37:44;;;;;;;10.95;3.53;;;;;;;;;;5072790;28;20926;-75
2022/10/07 01:40:13;;;;;;;13.02;4.05;;;;;;;;;;5073784;28;20390;-75
2022/10/07 01:42:39;;;;;;;12.85;3.80;;;;;;;;;;5070952;28;20418;-74
2022/10/07 01:45:06;;;;;;;11.77;4.00;;;;;;;;;;5068408;28;20717;-74
2022/10/07 01:47:32;;;;;;;14.80;4.03;;;;;;;;;;5072335;28;20421;-74
2022/10/07 01:49:58;;;;;;;13.40;4.13;;;;;;;;;;5090101;28;20476;-74
2022/10/07 01:52:25;;;;;;;13.93;5.40;;;;;;;;;;5075063;28;20418;-74
2022/10/07 01:55:28;;;;;;;14.35;3.92;;;9.60;99.90;;;;;;5071661;28;20406;-74
2022/10/07 01:58:12;;;;;;;14.70;4.55;;;;;;;;;;5072553;28;20429;-74
2022/10/07 02:00:42;;;;;;;15.15;4.38;;;;;;;;;;5069243;28;20508;-74
2022/10/07 02:03:23;;;;;;;11.85;4.50;;;;;;;;;;5072629;28;20453;-74
2022/10/07 02:05:52;;;;;;;14.68;4.30;;;;;;;;;;5071650;28;20770;-74
2022/10/07 02:08:25;;;;;;;14.00;4.67;;;;;;;;;;5055818;28;20468;-74
2022/10/07 02:10:51;;;;;;;14.07;4.70;;;;;;;;;;5089130;28;20421;-75
2022/10/07 02:13:27;;;;;;;14.43;4.32;;;;;;;;;;5072114;28;20490;-74
2022/10/07 02:16:16;;;;;;;15.35;4.47;;;;;;;;;;5087551;28;20457;-74
2022/10/07 02:18:47;;;;;;;13.52;4.43;;;9.60;99.90;;;;;;5072673;28;20425;-74
2022/10/07 02:21:13;;;;;;;13.93;4.40;;;;;;;;;;5072669;28;20418;-74
2022/10/07 02:23:40;;;;;;;14.48;4.32;;;9.40;99.90;;;;;;5088974;28;20418;-74
2022/10/07 02:26:08;;;;;;;13.85;4.38;;;9.50;99.90;;;;;;5069368;28;20417;-75
2022/10/07 02:28:36;;;;;;;12.43;4.43;;;;;;;;;;5086025;28;20483;-74
2022/10/07 02:31:03;;;;;;;12.80;4.30;;;;;;;;;;5072510;28;20523;-74
2022/10/07 02:33:30;;;;;;;11.50;4.22;;;9.60;99.90;;;;;;5072370;28;20971;-74
2022/10/07 02:36:01;;;;;;;12.73;3.83;;;;;;;;;;5070615;28;20475;-74
2022/10/07 02:38:28;;;;;;;17.25;4.82;;;;;;;;;;5071906;28;20921;-74
2022/10/07 02:41:00;;;;;;;13.68;4.70;;;;;;;;;;5070847;28;20937;-74
2022/10/07 02:43:44;;;;;;;16.00;4.47;;;9.50;99.90;;;;;;5085948;28;20452;-74
2022/10/07 02:46:30;;;;;;;14.95;4.13;;;;;;;;;;5089588;28;20478;-74
2022/10/07 02:49:04;;;;;;;16.60;4.50;;;9.70;99.90;;;;;;5071860;28;20488;-74
2022/10/07 02:51:41;;;;;;;15.88;4.45;;;9.60;99.90;;;;;;5072251;28;20421;-74
2022/10/07 02:54:07;;;;;;;17.73;4.53;;;;;;;;;;5069440;28;20421;-74
2022/10/07 02:56:36;;;;;;;16.30;4.90;;;;;;;;;;5072729;28;20402;-73
2022/10/07 02:59:05;;;;;;;16.42;4.60;;;9.30;99.90;;;;;;5070174;28;20426;-74
2022/10/07 03:01:33;;;;;;;15.68;4.70;;;;;;;;;;5107130;28;20394;-74
2022/10/07 03:04:00;;;;;;;16.58;5.00;;;9.60;99.90;;;;;;5075003;28;20483;-74
2022/10/07 03:06:28;;;;;;;14.82;4.80;;;9.30;99.90;;;;;;5075682;28;20422;-73
2022/10/07 03:08:56;;;;;;;17.38;5.25;;;9.50;99.90;;;;;;5072869;28;20425;-74
2022/10/07 03:11:22;;;;;;;18.73;5.53;;;;;;;;;;5109259;28;21036;-74
2022/10/07 03:13:52;;;;;;;12.48;4.68;;;;;;;;;;5074316;28;20448;-74
2022/10/07 03:16:18;;;;;;;17.30;5.35;;;;;;;;;;5076026;28;20489;-74
2022/10/07 03:18:45;;;;;;;18.92;5.00;;;;;;;;;;5074521;28;20418;-74
2022/10/07 03:21:11;;;;;;;17.70;5.43;;;;;;;;;;5058780;28;20422;-75
2022/10/07 03:23:37;;;;;;;15.10;4.90;;;;;;;;;;5107226;28;20555;-74
2022/10/07 03:26:03;;;;;;;16.40;5.10;;;;;;;;;;5077365;28;20413;-73
2022/10/07 03:28:32;;;;;;;16.70;5.55;;;;;;;;;;5091273;28;20426;-74
2022/10/07 03:31:08;;;;;;;15.40;5.10;;;9.30;99.90;;;;;;5073857;28;20955;-74
2022/10/07 03:33:36;;;;;;;17.70;5.15;;;;;;;;;;5073471;28;20432;-74
2022/10/07 03:36:02;;;;;;;18.88;5.45;;;;;;;;;;5091397;28;20421;-73
2022/10/07 03:38:28;;;;;;;17.75;5.50;;;;;;;;;;5091248;28;20936;-73
2022/10/07 03:40:55;;;;;;;18.00;5.53;;;;;;;;;;5074161;28;20422;-73
2022/10/07 03:43:21;;;;;;;15.10;5.25;;;;;;;;;;5073161;28;20414;-74
2022/10/07 03:45:50;;;;;;;17.63;5.38;;;;;;;;;;5075050;28;20468;-74
2022/10/07 03:48:17;;;;;;;19.70;6.35;;;;;;;;;;5074274;28;20502;-74
2022/10/07 03:50:52;;;;;;;22.05;6.93;;;;;;;;;;5107610;28;20422;-74
2022/10/07 03:53:18;;;;;;;19.02;6.00;;;;;;;;;;5054668;28;20425;-74
2022/10/07 03:55:45;;;;;;;18.95;5.57;;;;;;;;;;5077170;28;20420;-74
2022/10/07 03:58:11;;;;;;;20.48;5.93;;;;;;;;;;5075138;28;20426;-74
2022/10/07 04:00:37;;;;;;;19.00;6.00;;;;;;;;;;5074092;28;20417;-74
2022/10/07 04:03:05;;;;;;;20.60;5.90;;;;;;;;;;5073581;28;20781;-74
2022/10/07 04:05:31;;;;;;;21.02;6.50;;;;;;;;;;5073409;28;20420;-73
2022/10/07 04:07:57;;;;;;;19.48;6.32;;;;;;;;;;5058140;28;20462;-74
2022/10/07 04:10:23;;;;;;;22.33;6.10;;;;;;;;;;5089075;28;20425;-74
2022/10/07 04:12:51;;;;;;;21.27;6.28;;;;;;;;;;5106688;28;20922;-74
2022/10/07 04:15:17;;;;;;;16.33;5.63;;;;;;;;;;5073735;28;20433;-74
2022/10/07 04:17:43;;;;;;;22.85;6.28;;;;;;;;;;5055918;28;20422;-74
2022/10/07 04:20:10;;;;;;;19.40;5.78;;;9.20;99.90;;;;;;5088097;28;20494;-74
2022/10/07 04:22:36;;;;;;;18.88;6.35;;;;;;;;;;5073440;28;20422;-74
2022/10/07 04:27:52;;;;;;;21.33;6.30;;;9.20;99.90;;;;;;5106181;28;20424;-74
2022/10/07 04:30:20;;;;;;;21.95;6.80;;;9.30;99.90;;;;;;5056176;28;20425;-74
2022/10/07 04:32:49;;;;;;;21.50;6.35;;;;;;;;;;5089027;28;20428;-74
2022/10/07 04:35:24;;;;;;;20.75;6.13;;;;;;;;;;5071591;28;20902;-73
2022/10/07 04:37:52;;;;;;;19.75;6.15;;;9.00;99.90;;;;;;5091306;28;20828;-75
2022/10/07 04:40:19;;;;;;;17.97;5.77;;;;;;;;;;5104723;28;20518;-75
2022/10/07 04:45:35;;;;;;;20.60;6.07;;;;;;;;;;5074492;28;20406;-75
2022/10/07 04:48:02;;;;;;;23.05;6.70;;;;;;;;;;5090698;28;20398;-73
2022/10/07 04:50:29;;;;;;;18.58;5.75;;;;;;;;;;5103255;28;20595;-73
2022/10/07 04:52:55;;;;;;;20.75;7.05;;;;;;;;;;5071411;28;20483;-73
2022/10/07 04:55:21;;;;;;;21.58;6.57;;;;;;;;;;5091239;28;20818;-73
2022/10/07 04:57:48;;;;;;;20.55;7.28;;;;;;;;;;5074110;28;20422;-73
2022/10/07 05:00:14;;;;;;;21.27;7.10;;;;;;;;;;5072932;28;20427;-73
2022/10/07 05:02:40;;;;;;;18.97;7.10;;;;;;;;;;5072408;28;20429;-72
2022/10/07 05:05:08;;;;;;;23.30;7.18;;;;;;;;;;5071978;28;20425;-73
2022/10/07 05:07:34;;;;;;;21.85;7.00;;;;;;;;;;5090293;28;20774;-73
2022/10/07 05:10:00;;;;;;;20.42;7.32;;;;;;;;;;5074217;28;20409;-73
2022/10/07 05:12:27;;;;;;;24.75;6.95;;;;;;;;;;5089545;28;20764;-73
2022/10/07 05:14:53;;;;;;;19.13;7.07;;;;;;;;;;5073881;28;20459;-73
2022/10/07 05:17:19;;;;;;;19.75;7.20;;;;;;;;;;5074107;28;20425;-73
2022/10/07 05:19:45;;;;;;;20.73;6.78;;;;;;;;;;5090841;28;20429;-73
2022/10/07 05:22:11;;;;;;;22.77;7.35;;;;;;;;;;5071301;28;20904;-73
2022/10/07 05:24:37;;;;;;;21.98;6.90;;;;;;;;;;5071622;28;20790;-73
2022/10/07 05:27:03;;;;;;;23.55;7.47;;;;;;;;;;5072278;28;20513;-73
2022/10/07 05:29:29;;;;;;;21.40;6.90;;;;;;;;;;5073727;28;20435;-73
2022/10/07 05:31:55;;;;;;;23.65;7.03;;;;;;;;;;5072049;28;20463;-73
2022/10/07 05:34:22;;;;;;;19.60;7.10;;;;;;;;;;5107296;28;20702;-73
2022/10/07 05:36:48;;;;;;;19.50;7.40;;;;;;;;;;5088491;28;20422;-73
2022/10/07 05:39:14;;;;;;;21.80;7.38;;;;;;;;;;5073781;28;20509;-74
2022/10/07 05:41:40;;;;;;;21.80;7.20;;;;;;;;;;5072586;28;20418;-73
2022/10/07 05:44:06;;;;;;;25.30;7.80;;;;;;;;;;5090372;28;20406;-73
2022/10/07 05:46:32;;;;;;;23.27;8.10;;;;;;;;;;5089574;28;20413;-73
2022/10/07 05:48:59;;;;;;;18.80;7.70;;;;;;;;;;5090026;28;20409;-73
2022/10/07 05:51:25;;;;;;;21.52;7.63;;;;;;;;;;5057243;28;20947;-73
2022/10/07 05:53:55;;;;;;;23.98;8.07;;;9.10;99.90;;;;;;5071592;28;20424;-70
2022/10/07 05:56:21;;;;;;;21.70;7.43;;;;;;;;;;5047268;28;20461;-73
2022/10/07 05:58:51;;;;;;;19.27;7.28;;;;;;;;;;5070986;28;20451;-73
2022/10/07 06:01:21;;;;;;;22.85;7.82;;;;;;;;;;5070890;28;20418;-73
2022/10/07 06:03:53;;;;;;;26.00;8.10;;;9.10;99.90;;;;;;5072597;28;20425;-73
2022/10/07 06:06:19;;;;;;;22.52;7.70;;;;;;;;;;5070434;28;20425;-73
2022/10/07 06:08:46;;;;;;;25.40;7.82;;;;;;;;;;5107016;28;20402;-73
2022/10/07 06:13:58;;;;;;;20.20;7.63;;;;;;;;;;5105882;28;20422;-73
2022/10/07 06:16:24;;;;;;;23.73;8.30;;;;;;;;;;5071502;28;20831;-72
2022/10/07 06:18:51;;;;;;;19.10;7.83;;;;;;;;;;5072584;28;20513;-73
2022/10/07 06:21:18;;;;;;;24.85;8.05;;;;;;;;;;5087748;28;20449;-73
2022/10/07 06:23:44;;;;;;;21.15;7.50;;;;;;;;;;5073172;28;20406;-73
2022/10/07 06:26:12;;;;;;;22.75;7.80;;;;;;;;;;5071727;28;20414;-73
2022/10/07 06:28:39;;;;;;;26.80;8.50;;;;;;;;;;5089231;28;20453;-72
2022/10/07 06:31:13;;;;;;;22.83;7.78;;;9.70;99.90;;;;;;5085513;28;20493;-73
2022/10/07 06:33:39;;;;;;;25.15;7.72;;;;;;;;;;5070746;28;20422;-72
2022/10/07 06:36:08;;;;;;;21.70;7.40;;;9.70;99.90;;;;;;5072151;28;20788;-73
2022/10/07 06:38:34;;;;;;;23.47;7.50;;;;;;;;;;5103506;28;20858;-72
2022/10/07 06:41:02;;;;;;;14.57;6.43;;;9.90;99.90;;;;;;5055776;28;20423;-72
2022/10/07 06:43:28;;;;;;;26.80;7.20;;;;;;;;;;5070832;28;20421;-73
2022/10/07 06:46:00;;;;;;;20.97;6.97;;;;;;;;;;5064832;28;20436;-73
2022/10/07 06:48:26;;;;;;;28.65;7.25;;;;;;;;;;5069595;28;20778;-72
2022/10/07 06:50:53;;;;;;;20.88;6.80;;;;;;;;;;5070509;28;20496;-73
2022/10/07 06:53:19;;;;;;;25.07;7.30;;;;;;;;;;5068414;28;20559;-73
2022/10/07 06:55:45;;;;;;;24.23;7.32;;;;;;;;;;5071649;28;20451;-73
2022/10/07 06:58:12;;;;;;;21.20;7.35;;;;;;;;;;5055331;28;20419;-73
2022/10/07 07:00:38;;;;;;;18.45;6.70;;;;;;;;;;5049497;28;20421;-73
2022/10/07 07:03:04;;;;;;;16.52;6.25;;;;;;;;;;5054708;28;20416;-73
2022/10/07 07:05:40;;;;;;;17.10;6.22;;;;;;;;;;5071949;28;20919;-74
2022/10/07 07:08:06;;;;;;;17.65;6.35;;;;;;;;;;5071167;28;20427;-73
2022/10/07 07:10:36;;;;;;;15.70;6.43;;;10.80;99.90;;;;;;5071421;28;20510;-73
2022/10/07 07:13:05;;;;;;;20.67;6.10;;;;;;;;;;5104659;28;20431;-72
2022/10/07 07:15:31;;;;;;;20.17;5.78;;;;;;;;;;5053819;28;20456;-72
2022/10/07 07:17:57;;;;;;;18.80;6.65;;;;;;;;;;5071782;28;20756;-73
2022/10/07 07:20:23;;;;;;;25.15;7.15;;;;;;;;;;5051191;28;20424;-72
2022/10/07 07:22:51;;;;;;;20.00;6.15;;;;;;;;;;5072298;28;20458;-72
2022/10/07 07:25:17;;;;;;;14.35;5.55;;;;;;;;;;5070105;28;20420;-72
2022/10/07 07:27:46;;;;;;;18.17;5.60;;;;;;;;;;5046029;28;20921;-72
2022/10/07 07:30:12;;;;;;;20.10;5.93;;;11.50;99.90;;;;;;5056602;28;20428;-72
2022/10/07 07:32:39;;;;;;;17.63;5.25;;;;;;;;;;5087171;28;20423;-72
2022/10/07 07:35:06;;;;;;;16.23;5.43;;;11.70;99.90;;;;;;5071356;28;20499;-73
2022/10/07 07:37:32;;;;;;;19.98;5.50;;;;;;;;;;5041582;28;20422;-73
2022/10/07 07:39:59;;;;;;;18.98;5.40;;;;;;;;;;5074813;28;20425;-72
2022/10/07 07:42:26;;;;;;;19.50;6.18;;;11.90;99.90;;;;;;5090281;28;20414;-72
2022/10/07 07:44:54;;;;;;;17.90;5.68;;;;;;;;;;5072005;28;20427;-73
2022/10/07 07:47:20;;;;;;;17.92;4.63;;;;;;;;;;5038241;28;20481;-73
2022/10/07 07:49:48;;;;;;;18.33;5.10;;;;;;;;;;5040560;28;20422;-75
2022/10/07 07:52:14;;;;;;;14.98;4.85;;;;;;;;;;5108572;28;20471;-73
2022/10/07 07:54:40;;;;;;;14.95;5.13;;;;;;;;;;5071743;28;20421;-74
2022/10/07 07:57:07;;;;;;;17.77;4.93;;;12.30;99.90;;;;;;5104126;28;20805;-72
2022/10/07 07:59:33;;;;;;;16.57;5.27;;;;;;;;;;5073793;28;20424;-82
2022/10/07 08:02:01;;;;;;;18.80;4.78;;;;;;;;;;5075552;28;20430;-81
2022/10/07 08:04:26;;;;;;;14.20;4.95;;;12.70;99.90;;;;;;5092648;28;20727;-79
2022/10/07 08:06:54;;;;;;;13.73;4.83;;;;;;;;;;5074395;28;20519;-79
2022/10/07 08:09:20;;;;;;;17.38;5.13;;;;;;;;;;5092183;28;20425;-79
2022/10/07 08:11:46;;;;;;;19.53;5.60;;;13.00;99.90;;;;;;5072699;28;20449;-80
2022/10/07 08:14:12;;;;;;;16.17;5.27;;;;;;;;;;5073670;28;21158;-79
2022/10/07 08:16:39;;;;;;;18.30;5.10;;;;;;;;;;5072123;28;20534;-79
2022/10/07 08:19:05;;;;;;;15.27;4.75;;;;;;;;;;5074925;28;20409;-79
2022/10/07 08:21:34;;;;;;;14.73;4.38;;;;;;;;;;5089055;28;20937;-79
2022/10/07 08:24:01;;;;;;;15.60;4.53;;;;;;;;;;5075155;28;20569;-79
2022/10/07 08:26:28;;;;;;;15.38;4.57;;;;;;;;;;5105211;28;20770;-79
2022/10/07 08:28:54;;;;;;;17.60;4.67;;;13.80;99.90;;;;;;5073673;28;20429;-79
2022/10/07 08:31:20;;;;;;;12.43;4.03;;;;;;;;;;5057196;28;20402;-79
2022/10/07 08:33:47;;;;;;;17.35;4.65;;;;;;;;;;5091588;28;20715;-79
2022/10/07 08:36:15;;;;;;;16.63;3.97;;;;;;;;;;5090908;28;20421;-79
2022/10/07 08:38:41;;;;;;;18.55;4.30;;;13.80;99.90;;;;;;5082760;28;20416;-79
2022/10/07 08:41:40;;;;;;;12.95;4.10;;;14.10;99.90;;;;;;5072912;28;20431;-78
2022/10/07 08:44:07;;;;;;;13.75;4.00;;;;;;;;;;5052681;28;20421;-79
2022/10/07 08:46:35;;;;;;;13.60;3.85;;;14.40;99.90;;;;;;5073550;28;20476;-78
2022/10/07 08:49:04;;;;;;;17.70;4.20;;;;;;;;;;5076722;28;20428;-79
2022/10/07 08:51:38;;;;;;;12.95;3.83;;;;;;;;;;5099517;28;20503;-79
2022/10/07 08:54:04;;;;;;;15.27;4.30;;;14.50;99.90;;;;;;5072460;28;20426;-79
2022/10/07 08:56:32;;;;;;;15.35;4.18;;;14.60;99.90;;;;;;5074838;28;20418;-78
2022/10/07 08:59:16;;;;;;;16.08;4.20;;;14.60;99.90;;;;;;5075863;28;20426;-79
2022/10/07 09:01:43;;;;;;;15.77;3.72;;;;;;;;;;5076080;28;20505;-79
2022/10/07 09:04:19;;;;;;;14.67;3.90;;;;;;;;;;5074020;28;20405;-78
2022/10/07 09:07:03;;;;;;;12.98;3.60;;;15.20;99.90;;;;;;5100946;28;20814;-79
2022/10/07 09:09:41;;;;;;;14.23;4.13;;;;;;;;;;5071143;28;20417;-80
2022/10/07 09:12:16;;;;;;;16.88;4.07;;;15.30;99.90;;;;;;5072451;28;20775;-80
2022/10/07 09:14:44;;;;;;;16.30;3.97;;;;;;;;;;5071395;28;20423;-81
2022/10/07 09:17:21;;;;;;;12.98;3.75;;;;;;;;;;5072410;28;20421;-82
2022/10/07 09:19:48;;;;;;;15.30;3.87;;;;;;;;;;5084865;28;20475;-73
2022/10/07 09:22:21;;;;;;;17.00;4.17;;;15.80;99.90;;;;;;5057040;28;21884;-73
2022/10/07 09:24:48;;;;;;;17.77;4.37;;;;;;;;;;5049214;28;20530;-72
2022/10/07 09:27:17;;;;;;;15.70;3.90;;;15.80;99.90;;;;;;5098832;28;20421;-71
2022/10/07 09:29:43;;;;;;;15.93;3.63;;;;;;;;;;5070115;28;20426;-71
2022/10/07 09:32:16;;;;;;;15.82;4.25;;;15.80;99.90;;;;;;5072889;28;20429;-71
2022/10/07 09:34:42;;;;;;;15.20;4.47;;;;;;;;;;5103977;28;20414;-71
2022/10/07 09:37:19;;;;;;;17.85;4.30;;;;;;;;;;5072126;28;20422;-72
2022/10/07 09:39:46;;;;;;;16.65;4.32;;;;;;;;;;5068702;28;20982;-72
2022/10/07 09:42:26;;;;;;;13.07;3.87;;;15.60;99.90;;;;;;5073464;28;20406;-72
2022/10/07 09:44:53;;;;;;;13.48;4.20;;;;;;;;;;5071728;28;20433;-72
2022/10/07 09:47:24;;;;;;;16.88;4.03;;;;;;;;;;5073075;28;20417;-71
2022/10/07 09:49:55;;;;;;;12.60;3.63;;;;;;;;;;5072074;28;20912;-72
2022/10/07 09:52:26;;;;;;;17.30;4.63;;;;;;;;;;5055208;28;20471;-71
2022/10/07 09:54:53;;;;;;;14.20;4.07;;;;;;;;;;5069922;28;20422;-72
2022/10/07 09:57:31;;;;;;;17.17;3.78;;;15.50;99.90;;;;;;5053532;28;20501;-72
2022/10/07 10:00:23;;;;;;;17.05;4.35;;;;;;;;;;5070358;28;20564;-72
2022/10/07 10:02:54;;;;;;;17.10;4.45;;;;;;;;;;5064530;28;20426;-72
2022/10/07 10:05:25;;;;;;;13.40;3.80;;;;;;;;;;5073239;28;20501;-72
2022/10/07 10:08:19;;;;;;;13.90;3.90;;;15.80;99.90;;;;;;5052196;28;20498;-72
2022/10/07 10:10:53;;;;;;;20.52;4.22;;;;;;;;;;5074504;28;20426;-73
2022/10/07 10:13:39;;;;;;;16.37;3.97;;;;;;;;;;5093526;28;20461;-73
2022/10/07 10:16:26;;;;;;;15.50;3.75;;;;;;;;;;5088397;28;20548;-73
2022/10/07 10:19:23;;;;;;;12.85;4.00;;;15.60;99.90;;;;;;5086046;28;20425;-73
2022/10/07 10:21:57;;;;;;;17.33;4.40;;;15.50;99.90;;;;;;5074354;28;20421;-73
2022/10/07 10:27:25;;;;;;;16.17;3.90;;;15.80;99.90;;;;;;5108841;28;20418;-73
2022/10/07 10:30:00;;;;;;;13.27;3.50;;;;;;;;;;5107787;28;20420;-73
2022/10/07 10:32:46;;;;;;;16.08;4.18;;;;;;;;;;5109684;28;20417;-73
2022/10/07 10:35:26;;;;;;;13.07;3.67;;;15.80;99.90;;;;;;5075555;28;20425;-73
2022/10/07 10:38:29;;;;;;;15.32;3.40;;;16.10;99.90;;;;;;5057743;28;20434;-73
2022/10/07 10:41:13;;;;;;;13.30;3.20;;;16.70;99.90;;;;;;5073812;28;20418;-72
2022/10/07 10:43:53;;;;;;;12.57;3.50;;;16.50;99.90;;;;;;5079715;28;20412;-72
2022/10/07 10:46:19;;;;;;;12.52;3.28;;;;;;;;;;5058855;28;20505;-74
2022/10/07 10:48:46;;;;;;;11.93;3.20;;;;;;;;;;5091804;28;20425;-73
2022/10/07 10:51:33;;;;;;;16.48;3.72;;;;;;;;;;5091649;28;20455;-72
2022/10/07 10:54:19;;;;;;;15.50;3.42;;;17.00;99.90;;;;;;5070381;28;21569;-78
2022/10/07 10:57:03;;;;;;;14.70;3.70;;;17.00;99.90;;;;;;5093072;28;20484;-77
2022/10/07 10:59:44;;;;;;;12.88;3.40;;;17.50;99.90;;;;;;5070277;28;20425;-78
2022/10/07 11:02:38;;;;;;;14.57;3.38;;;17.60;99.90;;;;;;5074850;28;20453;-76
2022/10/07 11:05:23;;;;;;;12.32;3.17;;;17.50;99.90;;;;;;5057586;28;20416;-77
2022/10/07 11:08:07;;;;;;;17.88;3.50;;;;;;;;;;5058101;28;20429;-77
2022/10/07 11:10:59;;;;;;;14.02;3.13;;;17.40;99.90;;;;;;5065248;28;20578;-76
2022/10/07 11:13:45;;;;;;;14.32;3.25;;;;;;;;;;5045821;28;20432;-77
2022/10/07 11:16:30;;;;;;;15.85;3.58;;;;;;;;;;5098299;27;22365;-78
2022/10/07 11:19:01;;;;;;;12.82;2.80;;;;;;;;;;5067470;28;20426;-77
2022/10/07 11:21:38;;;;;;;14.35;3.33;;;;;;;;;;5065296;28;20434;-77
2022/10/07 11:24:55;;;;;;;11.63;2.85;;;18.30;99.90;;;;;;5082864;28;20484;-77
2022/10/07 11:27:31;;;;;;;15.13;3.30;;;18.30;99.90;;;;;;5017126;28;20421;-77
2022/10/07 11:30:07;;;;;;;12.23;2.90;;;18.40;99.90;;;;;;5028679;28;20457;-78
2022/10/07 11:32:59;;;;;;;11.63;2.87;;;18.70;99.90;;;;;;5054673;28;20413;-78
2022/10/07 11:35:32;;;;;;;10.63;2.55;;;18.80;99.90;;;;;;5074755;28;20421;-78
2022/10/07 11:38:13;;;;;;;9.95;2.83;;;19.00;99.90;;;;;;5111550;28;20429;-78
2022/10/07 11:40:50;;;;;;;11.48;2.88;;;18.90;99.90;;;;;;5060007;28;20415;-77
2022/10/07 11:43:29;;;;;;;11.05;2.83;;;18.80;99.90;;;;;;5073506;28;20418;-72
2022/10/07 11:46:00;;;;;;;12.43;2.80;;;18.80;99.90;;;;;;5056028;28;20400;-72
2022/10/07 11:48:39;;;;;;;12.50;3.13;;;18.70;99.90;;;;;;5070744;28;20417;-72
2022/10/07 11:51:08;;;;;;;9.97;2.90;;;19.00;99.90;;;;;;5076135;28;20431;-72
2022/10/07 11:53:38;;;;;;;10.93;3.05;;;19.40;99.90;;;;;;5068035;28;20562;-72
2022/10/07 11:56:19;;;;;;;12.02;2.97;;;19.00;99.90;;;;;;5098984;28;20445;-72
2022/10/07 11:58:54;;;;;;;12.60;3.50;;;18.80;99.90;;;;;;5060029;28;20439;-72
2022/10/07 12:01:27;;;;;;;13.43;3.42;;;18.50;99.90;;;;;;5062236;28;20483;-72
2022/10/07 12:04:21;;;;;;;13.18;3.67;;;18.50;99.90;;;;;;5059891;28;20432;-72
2022/10/07 12:07:25;;;;;;;13.85;3.40;;;18.70;99.90;;;;;;5061980;28;20910;-73
2022/10/07 12:09:52;;;;;;;13.15;3.10;;;;;;;;;;5067022;28;20479;-72
2022/10/07 12:12:22;;;;;;;11.98;3.38;;;18.20;99.90;;;;;;5066674;28;20634;-73
2022/10/07 12:15:02;;;;;;;10.75;2.75;;;18.60;99.90;;;;;;5085866;28;20436;-72
2022/10/07 12:17:29;;;;;;;12.40;3.10;;;;;;;;;;5070313;28;20418;-72
2022/10/07 12:20:30;;;;;;;16.67;3.80;;;;;;;;;;5105311;28;20478;-72
2022/10/07 12:23:22;;;;;;;11.25;2.83;;;18.30;99.90;;;;;;5011425;28;20903;-72
2022/10/07 12:26:24;;;;;;;15.67;3.47;;;18.30;99.90;;;;;;5066048;28;20417;-72
2022/10/07 12:28:51;;;;;;;12.25;2.78;;;18.20;99.90;;;;;;5076240;28;20457;-72
2022/10/07 12:31:17;;;;;;;14.88;3.03;;;17.80;99.90;;;;;;5054710;28;20400;-72
2022/10/07 12:33:43;;;;;;;11.68;2.80;;;;;;;;;;5055001;28;20407;-72
2022/10/07 12:36:21;;;;;;;12.85;2.72;;;17.90;99.90;;;;;;5060618;28;20426;-73
2022/10/07 12:38:58;;;;;;;11.38;3.00;;;17.80;99.90;;;;;;5060385;28;20426;-74
2022/10/07 12:41:28;;;;;;;12.75;3.17;;;18.00;99.90;;;;;;5084367;28;20417;-73
2022/10/07 12:44:06;;;;;;;12.35;3.38;;;18.00;99.90;;;;;;5070819;28;20492;-72
2022/10/07 12:46:34;;;;;;;11.52;2.83;;;17.70;99.90;;;;;;5107324;28;20913;-73
2022/10/07 12:49:13;;;;;;;14.18;2.97;;;;;;;;;;5076000;28;20409;-73
2022/10/07 12:51:39;;;;;;;11.67;2.40;;;18.00;99.90;;;;;;5073596;28;20509;-73
2022/10/07 12:54:17;;;;;;;9.85;2.55;;;18.00;99.90;;;;;;5071596;28;20430;-74
2022/10/07 12:56:44;;;;;;;10.48;2.60;;;;;;;;;;5107018;28;20512;-74
2022/10/07 13:02:05;;;;;;;13.07;2.70;;;;;;;;;;5069866;28;20503;-74
2022/10/07 13:04:50;;;;;;;9.90;2.60;;;;;;;;;;5090751;28;20781;-74
2022/10/07 13:07:24;;;;;;;11.80;2.95;;;18.20;99.90;;;;;;5074094;28;20436;-74
2022/10/07 13:09:50;;;;;;;10.57;3.00;;;17.90;99.90;;;;;;5074853;28;20511;-74
2022/10/07 13:12:31;;;;;;;11.93;3.00;;;18.10;99.90;;;;;;5073524;28;20497;-74
2022/10/07 13:14:57;;;;;;;10.10;2.70;;;;;;;;;;5059250;28;20418;-73
2022/10/07 13:17:26;;;;;;;12.38;3.15;;;;;;;;;;5075880;28;21039;-74
2022/10/07 13:20:01;;;;;;;10.52;2.83;;;17.80;99.90;;;;;;5087774;28;20422;-73
2022/10/07 13:22:27;;;;;;;11.73;2.90;;;18.00;99.90;;;;;;5071640;28;20453;-74
2022/10/07 13:24:55;;;;;;;11.33;3.00;;;;;;;;;;5072318;28;20453;-74
2022/10/07 13:27:27;;;;;;;9.80;2.88;;;;;;;;;;5088837;28;20453;-73
2022/10/07 13:29:53;;;;;;;12.15;2.92;;;;;;;;;;5048701;28;20567;-73
2022/10/07 13:32:23;;;;;;;13.68;3.17;;;18.20;99.90;;;;;;5072388;28;20434;-73
2022/10/07 13:34:50;;;;;;;9.90;2.92;;;18.00;99.90;;;;;;5053514;28;20422;-73
2022/10/07 13:37:29;;;;;;;11.82;2.72;;;17.90;99.90;;;;;;5054197;28;20437;-73
2022/10/07 13:39:55;;;;;;;13.95;3.13;;;;;;;;;;5056602;28;20450;-73
2022/10/07 13:42:28;;;;;;;11.70;2.70;;;;;;;;;;5072253;28;20422;-73
2022/10/07 13:45:01;;;;;;;10.43;3.03;;;18.30;99.90;;;;;;5072270;28;20420;-74
2022/10/07 13:47:29;;;;;;;12.82;3.22;;;;;;;;;;5038704;28;20474;-74
2022/10/07 13:49:57;;;;;;;11.20;2.80;;;18.00;99.90;;;;;;5071227;28;20511;-74
2022/10/07 13:52:36;;;;;;;12.50;3.20;;;17.80;99.90;;;;;;5068711;28;20420;-74
2022/10/07 13:55:02;;;;;;;13.05;3.17;;;;;;;;;;5067018;28;20421;-75
2022/10/07 13:57:30;;;;;;;12.40;3.70;;;17.70;99.90;;;;;;5051734;28;20521;-75
2022/10/07 13:59:56;;;;;;;13.65;4.38;;;;;;;;;;5066459;28;20510;-74
2022/10/07 14:02:22;;;;;;;13.55;4.35;;;;;;;;;;5034630;28;20535;-74
2022/10/07 14:04:58;;;;;;;14.07;3.88;;;;;;;;;;5070627;28;20456;-75
2022/10/07 14:07:26;;;;;;;19.73;4.30;;;17.80;99.90;;;;;;5086852;28;20464;-74
2022/10/07 14:10:03;;;;;;;15.10;3.55;;;;;;;;;;5066485;28;20441;-73
2022/10/07 14:12:35;;;;;;;13.30;3.90;;;;;;;;;;5070363;28;20461;-73
2022/10/07 14:15:23;;;;;;;13.45;3.83;;;17.70;99.90;;;;;;5078278;28;20476;-74
2022/10/07 14:17:50;;;;;;;14.55;3.50;;;;;;;;;;5062249;28;20777;-74
2022/10/07 14:20:34;;;;;;;11.13;2.95;;;17.70;99.90;;;;;;5096960;28;20531;-74
2022/10/07 14:23:01;;;;;;;13.23;3.22;;;;;;;;;;5045621;28;20471;-75
2022/10/07 14:25:29;;;;;;;10.32;2.83;;;;;;;;;;5061102;28;20425;-74
2022/10/07 14:28:07;;;;;;;9.98;2.70;;;;;;;;;;5080206;28;20471;-74